Terminal Aerodrome Forecast
Issued by NWS

Home | Current Version | Previous Version | Text Only | Print | Product List | Glossary On
Versions: 1 2 3 4 5 6 7 8 9 10 11 12 13 14 15
000
FTUS41 KBTV 041138
TAFMPV
TAF
KMPV 041138Z 0412/0512 00000KT 3/4SM BR VV001
      TEMPO 0413/0414 3SM BR SCT002
     FM041400 VRB05KT P6SM FEW250
     FM050100 00000KT P6SM SKC
     FM050600 00000KT 1/4SM FG VV001=

USA.gov is the U.S. government's official web portal to all federal, state and local government web resources and services.